Time;durP1;ratioP1;P1;durP2;ratioP2;P2;SDS_P1;SDS_P2;PMS_P1;PMS_P2;Temp;Humidity;BMP_temperature;BMP_pressure;BME280_temperature;BME280_humidity;BME280_pressure;Samples;Min_cycle;Max_cycle;Signal;HPM_P1;HPM_P2
2023/10/19 07:48:33;;;;;;;7.53;3.90;;;10.60;99.90;;;;;;6183434;22;1370222;-80
2023/10/19 07:50:59;;;;;;;10.27;5.07;;;10.70;99.90;;;;;;6267543;22;20094;-84
2023/10/19 07:53:25;;;;;;;6.22;3.50;;;10.70;99.90;;;;;;6267680;22;20027;-83
2023/10/19 07:55:52;;;;;;;7.35;3.95;;;10.70;99.90;;;;;;6267598;22;20074;-83
2023/10/19 07:58:18;;;;;;;9.60;5.03;;;10.70;99.90;;;;;;6269967;22;20016;-83
2023/10/19 08:00:46;;;;;;;9.40;4.72;;;10.80;99.90;;;;;;6269702;22;20070;-83
2023/10/19 08:03:15;;;;;;;7.88;4.25;;;10.70;99.90;;;;;;6268884;22;20015;-82
2023/10/19 08:05:42;;;;;;;8.80;4.00;;;10.80;99.90;;;;;;6270217;22;20072;-83
2023/10/19 08:08:08;;;;;;;11.52;4.85;;;10.80;99.90;;;;;;6271724;22;20230;-82
2023/10/19 08:10:34;;;;;;;10.07;4.82;;;10.80;99.90;;;;;;6271283;22;20015;-82
2023/10/19 08:13:01;;;;;;;9.80;4.63;;;10.90;99.90;;;;;;6269571;22;20020;-83
2023/10/19 08:15:30;;;;;;;8.23;4.35;;;10.90;99.90;;;;;;6269607;22;20341;-82
2023/10/19 08:17:56;;;;;;;9.37;5.10;;;11.00;99.90;;;;;;6268758;22;20019;-82
2023/10/19 08:20:30;;;;;;;10.63;4.45;;;11.00;99.90;;;;;;6269580;22;20084;-82
2023/10/19 08:22:57;;;;;;;7.88;4.25;;;11.00;99.90;;;;;;6269842;22;20008;-82
2023/10/19 08:25:27;;;;;;;9.57;4.47;;;11.00;99.90;;;;;;6270524;22;20026;-82
2023/10/19 08:27:56;;;;;;;8.27;4.63;;;11.10;99.90;;;;;;6269428;22;20034;-82
2023/10/19 08:30:22;;;;;;;;;;;11.10;99.90;;;;;;6270176;22;20028;-81
2023/10/19 08:32:49;;;;;;;8.70;4.13;;;11.20;99.90;;;;;;6269814;22;19922;-83
2023/10/19 08:35:25;;;;;;;10.57;4.25;;;11.20;99.90;;;;;;6269621;22;20012;-83
2023/10/19 08:37:59;;;;;;;8.27;4.63;;;11.20;99.90;;;;;;6267907;22;20011;-83
2023/10/19 08:40:26;;;;;;;10.27;4.75;;;11.30;99.90;;;;;;6269166;22;20073;-83
2023/10/19 08:42:53;;;;;;;7.82;3.92;;;11.30;99.90;;;;;;6269005;22;20011;-83
2023/10/19 08:45:21;;;;;;;8.95;4.10;;;11.30;99.90;;;;;;6268698;22;20019;-82
2023/10/19 08:48:04;;;;;;;8.00;4.38;;;11.40;99.90;;;;;;6268288;22;20472;-82
2023/10/19 08:50:32;;;;;;;9.15;4.70;;;11.40;99.90;;;;;;6269457;22;20023;-82
2023/10/19 08:52:59;;;;;;;10.63;4.97;;;11.50;99.90;;;;;;6269847;22;20426;-83
2023/10/19 08:55:25;;;;;;;7.10;4.22;;;11.50;99.90;;;;;;6268208;22;20435;-82
2023/10/19 08:57:52;;;;;;;8.32;4.47;;;11.50;99.90;;;;;;6275027;22;20016;-82
2023/10/19 09:00:19;;;;;;;10.18;4.72;;;11.60;99.90;;;;;;6269465;22;20051;-85
2023/10/19 09:02:48;;;;;;;9.32;5.03;;;11.60;99.90;;;;;;6269073;22;20071;-85
2023/10/19 09:05:25;;;;;;;11.32;4.97;;;11.60;99.90;;;;;;6242534;22;20087;-82
2023/10/19 09:07:55;;;;;;;6.95;4.13;;;11.70;99.90;;;;;;6269396;22;20027;-85
2023/10/19 09:10:22;;;;;;;9.98;5.22;;;11.70;99.90;;;;;;6266681;22;20482;-84
2023/10/19 09:13:10;;;;;;;10.65;5.05;;;11.70;99.90;;;;;;6266960;22;20023;-84
2023/10/19 09:15:37;;;;;;;10.68;5.47;;;11.80;99.90;;;;;;6268674;22;20027;-84
2023/10/19 09:18:21;;;;;;;10.93;5.00;;;11.70;99.90;;;;;;6267989;22;20054;-85
2023/10/19 09:21:07;;;;;;;10.02;4.68;;;11.80;99.90;;;;;;6269603;22;20020;-85
2023/10/19 09:23:36;;;;;;;8.63;4.45;;;11.80;99.90;;;;;;6270558;22;20043;-83
2023/10/19 09:26:03;;;;;;;8.40;4.70;;;11.80;99.90;;;;;;6267464;22;20038;-82
2023/10/19 09:28:29;;;;;;;10.60;4.70;;;11.90;99.90;;;;;;6269913;22;20448;-84
2023/10/19 09:30:55;;;;;;;9.45;5.05;;;11.90;99.90;;;;;;6269904;22;20047;-85
2023/10/19 09:33:24;;;;;;;10.57;5.60;;;11.90;99.90;;;;;;6266877;22;20012;-86
2023/10/19 09:35:53;;;;;;;10.93;5.55;;;11.90;99.90;;;;;;6268406;22;20038;-82
2023/10/19 09:38:22;;;;;;;10.45;5.63;;;12.00;99.90;;;;;;6267421;22;20022;-85
2023/10/19 09:40:50;;;;;;;9.43;4.60;;;12.00;99.90;;;;;;6268422;22;20031;-85
2023/10/19 09:43:22;;;;;;;8.40;4.57;;;12.00;99.90;;;;;;6269608;22;20011;-84
2023/10/19 09:45:53;;;;;;;12.43;5.40;;;12.10;99.90;;;;;;6269434;22;20030;-85
2023/10/19 09:48:19;;;;;;;11.73;5.78;;;12.10;99.90;;;;;;6242652;22;20020;-84
2023/10/19 09:50:55;;;;;;;10.48;5.07;;;12.10;99.90;;;;;;6268559;22;20448;-84
2023/10/19 09:53:25;;;;;;;11.52;4.93;;;12.20;99.90;;;;;;6268912;22;20055;-84
2023/10/19 09:55:53;;;;;;;8.77;4.85;;;12.20;99.90;;;;;;6267531;22;20022;-86
2023/10/19 09:58:23;;;;;;;12.48;5.47;;;12.20;99.90;;;;;;6268282;22;20011;-85
2023/10/19 10:00:51;;;;;;;;;;;12.30;99.90;;;;;;6268338;22;20030;-85
2023/10/19 10:03:47;;;;;;;9.00;4.50;;;12.30;99.90;;;;;;6268893;22;19911;-84
2023/10/19 10:06:29;;;;;;;7.63;4.38;;;12.40;99.90;;;;;;6269071;22;20012;-86
2023/10/19 10:08:55;;;;;;;9.77;5.65;;;12.40;99.90;;;;;;6267842;22;20023;-86
2023/10/19 10:11:26;;;;;;;11.82;4.97;;;12.50;99.90;;;;;;6268993;22;20019;-86
2023/10/19 10:13:53;;;;;;;11.88;6.03;;;12.50;99.90;;;;;;6242295;22;20058;-84
2023/10/19 10:16:24;;;;;;;11.20;4.78;;;12.60;99.90;;;;;;6267722;22;20423;-86
2023/10/19 10:18:53;;;;;;;17.67;5.90;;;12.60;99.90;;;;;;6243109;22;20016;-86
2023/10/19 10:21:21;;;;;;;10.88;6.15;;;12.70;99.90;;;;;;6268682;22;20047;-86
2023/10/19 10:23:50;;;;;;;11.20;5.35;;;12.70;99.90;;;;;;6267455;22;20011;-85
2023/10/19 10:26:24;;;;;;;8.70;5.13;;;12.70;99.90;;;;;;6243109;22;20014;-85
2023/10/19 10:29:23;;;;;;;7.15;4.07;;;12.80;99.90;;;;;;6242190;22;20023;-86
2023/10/19 10:31:50;;;;;;;12.90;4.90;;;12.80;99.90;;;;;;6268241;22;20016;-86
2023/10/19 10:34:37;;;;;;;7.88;4.72;;;12.90;99.90;;;;;;6268187;22;20344;-86
2023/10/19 10:37:08;;;;;;;10.30;5.05;;;12.90;99.90;;;;;;6267835;22;20016;-85
2023/10/19 10:39:40;;;;;;;9.85;4.95;;;13.00;99.90;;;;;;6243181;22;20016;-86
2023/10/19 10:42:07;;;;;;;8.27;5.25;;;13.00;99.90;;;;;;6268223;22;20310;-86
2023/10/19 10:44:42;;;;;;;12.13;4.95;;;13.00;99.90;;;;;;6267766;22;20007;-86
2023/10/19 10:47:17;;;;;;;12.65;5.78;;;13.00;99.90;;;;;;6243708;22;20094;-86
2023/10/19 10:49:54;;;;;;;8.77;4.82;;;13.10;99.90;;;;;;6273519;22;20026;-86
2023/10/19 10:52:34;;;;;;;9.23;5.10;;;13.10;99.90;;;;;;6273177;22;20011;-86
2023/10/19 10:55:13;;;;;;;14.43;5.53;;;13.10;99.90;;;;;;6273952;22;20011;-85
2023/10/19 10:57:40;;;;;;;9.57;4.85;;;13.10;99.90;;;;;;6272536;22;20088;-85
2023/10/19 11:00:23;;;;;;;10.45;5.68;;;13.10;99.90;;;;;;6272515;22;20517;-85
2023/10/19 11:03:04;;;;;;;12.10;5.70;;;13.10;99.90;;;;;;6274003;22;20012;-84
2023/10/19 11:05:31;;;;;;;11.60;6.00;;;13.20;99.90;;;;;;6271206;22;20313;-86
2023/10/19 11:08:14;;;;;;;9.07;5.60;;;13.20;99.90;;;;;;6270568;22;20019;-85
2023/10/19 11:10:42;;;;;;;10.32;4.50;;;13.20;99.90;;;;;;6271884;22;20019;-84
2023/10/19 11:13:10;;;;;;;11.10;5.63;;;13.20;99.90;;;;;;6270779;22;20022;-85
2023/10/19 11:15:38;;;;;;;8.13;4.68;;;13.30;99.90;;;;;;6272324;22;20019;-85
2023/10/19 11:18:04;;;;;;;9.32;5.53;;;13.30;99.90;;;;;;6269529;22;20026;-85
2023/10/19 11:20:30;;;;;;;9.43;5.18;;;13.30;99.90;;;;;;6270504;22;20023;-86
2023/10/19 11:23:00;;;;;;;9.43;4.90;;;13.40;99.90;;;;;;6270100;22;20409;-85
2023/10/19 11:25:30;;;;;;;11.75;5.50;;;13.50;99.90;;;;;;6271092;22;20112;-85
2023/10/19 11:27:57;;;;;;;12.93;6.13;;;13.60;99.90;;;;;;6247208;22;20418;-86
2023/10/19 11:30:35;;;;;;;11.77;6.15;;;13.60;99.90;;;;;;6272271;22;20023;-84
2023/10/19 11:33:01;;;;;;;9.35;4.60;;;13.70;99.90;;;;;;6244950;22;20065;-87
2023/10/19 11:35:31;;;;;;;7.85;4.68;;;13.70;99.90;;;;;;6273365;22;20297;-86
2023/10/19 11:37:59;;;;;;;9.80;5.18;;;13.80;99.90;;;;;;6273051;22;20007;-86
2023/10/19 11:40:26;;;;;;;9.07;5.40;;;13.90;99.90;;;;;;6272895;22;20015;-85
2023/10/19 11:42:56;;;;;;;11.43;5.90;;;14.10;99.90;;;;;;6275704;22;20134;-83
2023/10/19 11:45:23;;;;;;;10.30;5.85;;;14.20;99.90;;;;;;6275913;22;20022;-95
2023/10/19 11:47:50;;;;;;;14.57;5.90;;;14.30;99.90;;;;;;6269177;22;20061;-82
2023/10/19 11:50:17;;;;;;;11.25;5.82;;;14.30;99.90;;;;;;6272188;22;20008;-84
2023/10/19 11:52:45;;;;;;;10.80;5.13;;;14.30;99.90;;;;;;6269691;22;20015;-84
2023/10/19 11:55:15;;;;;;;12.18;5.43;;;14.40;99.90;;;;;;6269329;22;20118;-84
2023/10/19 11:57:43;;;;;;;10.85;4.90;;;14.30;99.90;;;;;;6271878;22;20020;-84
2023/10/19 12:00:21;;;;;;;10.27;5.63;;;14.30;99.90;;;;;;6271343;22;20026;-84
2023/10/19 12:02:48;;;;;;;8.43;5.53;;;14.20;99.90;;;;;;6268729;22;20046;-85
2023/10/19 12:05:13;;;;;;;12.38;5.38;;;14.10;99.90;;;;;;6269242;22;20020;-85
2023/10/19 12:07:40;;;;;;;13.07;5.35;;;14.00;99.90;;;;;;6269032;22;20038;-84
2023/10/19 12:10:10;;;;;;;10.25;5.47;;;14.00;99.90;;;;;;6271542;22;20020;-82
2023/10/19 12:12:37;;;;;;;9.88;5.65;;;14.00;99.90;;;;;;6270418;22;20031;-82
2023/10/19 12:15:06;;;;;;;12.60;5.47;;;13.90;99.90;;;;;;6271508;22;20007;-83
2023/10/19 12:17:32;;;;;;;;;;;13.90;99.90;;;;;;6271792;22;20007;-83
2023/10/19 12:19:58;;;;;;;8.95;4.57;;;14.00;99.90;;;;;;6272606;22;19915;-83
2023/10/19 12:22:31;;;;;;;10.65;5.40;;;13.90;99.90;;;;;;6271382;22;20023;-83
2023/10/19 12:24:58;;;;;;;11.35;5.43;;;13.80;99.90;;;;;;6271877;22;20396;-83
2023/10/19 12:27:24;;;;;;;9.63;5.40;;;13.80;99.90;;;;;;6269351;22;20050;-83
2023/10/19 12:29:52;;;;;;;14.73;6.30;;;13.90;99.90;;;;;;6270297;22;20609;-83
2023/10/19 12:32:18;;;;;;;9.65;4.72;;;13.90;99.90;;;;;;6271463;22;20012;-83
2023/10/19 12:34:44;;;;;;;11.20;5.85;;;13.80;99.90;;;;;;6271234;22;20011;-83
2023/10/19 12:37:12;;;;;;;8.75;5.05;;;13.80;99.90;;;;;;6269995;22;20638;-83
2023/10/19 12:39:49;;;;;;;10.23;5.05;;;13.80;99.90;;;;;;6270845;22;20099;-83
2023/10/19 12:42:15;;;;;;;9.82;5.50;;;13.80;99.90;;;;;;6268489;22;20091;-83
2023/10/19 12:44:41;;;;;;;12.45;5.82;;;13.80;99.90;;;;;;6268718;22;20023;-87
2023/10/19 12:47:14;;;;;;;11.05;5.72;;;13.80;99.90;;;;;;6269930;22;20065;-83
2023/10/19 12:49:40;;;;;;;12.55;6.60;;;13.80;99.90;;;;;;6301291;22;20046;-83
2023/10/19 12:52:10;;;;;;;11.55;6.63;;;13.80;99.90;;;;;;6301638;22;20106;-82
2023/10/19 12:54:37;;;;;;;;;;;13.80;99.90;;;;;;6274233;22;20019;-84
2023/10/19 12:57:06;;;;;;;10.52;5.95;;;13.80;99.90;;;;;;6301431;22;20394;-84
2023/10/19 12:59:33;;;;;;;12.65;6.07;;;13.70;99.90;;;;;;6302461;22;20018;-83
2023/10/19 13:01:58;;;;;;;9.20;5.45;;;13.70;99.90;;;;;;6302484;22;20007;-83
2023/10/19 13:04:25;;;;;;;15.00;5.82;;;13.60;99.90;;;;;;6300862;22;20039;-83
2023/10/19 13:06:51;;;;;;;14.60;6.43;;;13.60;99.90;;;;;;6273609;22;20088;-84
2023/10/19 13:09:38;;;;;;;11.30;5.40;;;13.60;99.90;;;;;;6275087;22;20024;-85
2023/10/19 13:12:07;;;;;;;9.27;5.18;;;13.50;99.90;;;;;;6273536;22;20118;-84
2023/10/19 13:14:34;;;;;;;12.65;5.47;;;13.50;99.90;;;;;;6274170;22;20023;-83
2023/10/19 13:17:00;;;;;;;8.20;4.78;;;13.50;99.90;;;;;;6301192;22;20041;-84
2023/10/19 13:19:26;;;;;;;11.65;5.43;;;13.50;99.90;;;;;;6301922;22;20015;-81
2023/10/19 13:21:54;;;;;;;9.38;5.28;;;13.40;99.90;;;;;;6301922;22;20304;-82
2023/10/19 13:24:24;;;;;;;10.88;5.00;;;13.40;99.90;;;;;;6301238;22;20019;-83
2023/10/19 13:26:50;;;;;;;10.02;5.57;;;13.40;99.90;;;;;;6302212;22;20398;-82
2023/10/19 13:29:17;;;;;;;11.63;5.70;;;13.40;99.90;;;;;;6302231;22;20467;-84
2023/10/19 13:31:48;;;;;;;8.82;4.93;;;13.40;99.90;;;;;;6301267;22;20599;-83
2023/10/19 13:34:15;;;;;;;8.45;4.45;;;13.40;99.90;;;;;;6274443;22;20030;-83
2023/10/19 13:36:43;;;;;;;8.23;4.75;;;13.40;99.90;;;;;;6302154;22;20026;-82
2023/10/19 13:39:13;;;;;;;9.63;5.00;;;13.40;99.90;;;;;;6301466;22;20565;-82
2023/10/19 13:41:38;;;;;;;;;;;13.40;99.90;;;;;;6303088;22;20137;-82
2023/10/19 13:44:04;;;;;;;11.23;4.97;;;13.40;99.90;;;;;;6274457;22;19946;-82
2023/10/19 13:46:31;;;;;;;10.20;4.80;;;13.40;99.90;;;;;;6300392;22;20019;-82
2023/10/19 13:48:56;;;;;;;10.52;5.63;;;13.40;99.90;;;;;;6301486;22;20011;-83
2023/10/19 13:51:22;;;;;;;12.10;5.57;;;13.30;99.90;;;;;;6301647;22;20588;-82
2023/10/19 13:53:49;;;;;;;12.10;5.35;;;13.30;99.90;;;;;;6300779;22;20015;-82
2023/10/19 13:56:15;;;;;;;9.30;4.70;;;13.30;99.90;;;;;;6301983;22;20011;-82
2023/10/19 13:58:41;;;;;;;11.85;5.43;;;13.20;99.90;;;;;;6301655;22;20012;-83
2023/10/19 14:01:08;;;;;;;9.15;4.40;;;13.20;99.90;;;;;;6300454;22;20324;-82
2023/10/19 14:03:37;;;;;;;9.07;4.43;;;13.10;99.90;;;;;;6300157;22;20336;-83
2023/10/19 14:06:03;;;;;;;12.13;4.78;;;13.00;99.90;;;;;;6299276;22;20046;-82
2023/10/19 14:08:30;;;;;;;9.85;5.68;;;13.00;99.90;;;;;;6297958;22;20100;-83
2023/10/19 14:11:06;;;;;;;11.32;4.85;;;12.90;99.90;;;;;;6301222;22;20074;-82
2023/10/19 14:13:35;;;;;;;10.48;4.47;;;12.80;99.90;;;;;;6300222;22;20450;-82
2023/10/19 14:16:08;;;;;;;8.52;3.72;;;12.80;99.90;;;;;;6300928;22;20439;-82
2023/10/19 14:18:35;;;;;;;10.63;5.30;;;12.80;99.90;;;;;;6301248;22;20046;-82
2023/10/19 14:21:11;;;;;;;12.10;5.03;;;12.80;99.90;;;;;;6300343;22;20011;-82
2023/10/19 14:23:39;;;;;;;8.10;4.60;;;12.80;99.90;;;;;;6301241;22;20023;-81
2023/10/19 14:26:06;;;;;;;10.90;5.43;;;12.70;99.90;;;;;;6301246;22;20019;-82
2023/10/19 14:28:31;;;;;;;9.63;5.25;;;12.70;99.90;;;;;;6300450;22;20019;-83
2023/10/19 14:30:57;;;;;;;9.40;4.60;;;12.60;99.90;;;;;;6302313;22;20016;-83
2023/10/19 14:33:23;;;;;;;7.80;4.78;;;12.60;99.90;;;;;;6301126;22;20014;-82
2023/10/19 14:35:48;;;;;;;10.23;4.65;;;12.60;99.90;;;;;;6273418;22;20091;-82
2023/10/19 14:38:15;;;;;;;7.85;4.57;;;12.60;99.90;;;;;;6301620;22;20011;-82
2023/10/19 14:40:48;;;;;;;10.80;5.15;;;12.50;99.90;;;;;;6301917;22;20015;-90
2023/10/19 14:43:14;;;;;;;9.25;4.57;;;12.50;99.90;;;;;;6273413;22;20018;-86
2023/10/19 14:45:41;;;;;;;9.90;4.93;;;12.50;99.90;;;;;;6273295;22;20424;-87
2023/10/19 14:48:10;;;;;;;7.88;4.32;;;12.50;99.90;;;;;;6272186;22;20023;-86
2023/10/19 14:50:37;;;;;;;7.43;4.57;;;12.50;99.90;;;;;;6273585;22;20072;-87
2023/10/19 14:53:03;;;;;;;8.57;5.35;;;12.50;99.90;;;;;;6248377;22;20021;-87
2023/10/19 14:55:29;;;;;;;11.68;4.95;;;12.40;99.90;;;;;;6273371;22;20393;-87
2023/10/19 14:57:56;;;;;;;11.55;6.30;;;12.40;99.90;;;;;;6248551;22;20011;-82
2023/10/19 15:00:37;;;;;;;15.10;7.60;;;12.40;99.90;;;;;;6274807;22;20015;-82
2023/10/19 15:03:07;;;;;;;25.30;11.80;;;12.40;99.90;;;;;;6273495;22;20042;-83
2023/10/19 15:05:36;;;;;;;12.23;6.80;;;12.30;99.90;;;;;;6273364;22;20023;-83
2023/10/19 15:08:06;;;;;;;11.20;6.38;;;12.30;99.90;;;;;;6300658;22;20498;-82
2023/10/19 15:10:32;;;;;;;;;;;12.30;99.90;;;;;;6270471;22;20076;-82
2023/10/19 15:12:59;;;;;;;18.25;6.53;;;12.30;99.90;;;;;;6271957;22;20251;-82
2023/10/19 15:15:28;;;;;;;10.70;5.90;;;12.30;99.90;;;;;;6274452;22;20022;-82
2023/10/19 15:17:55;;;;;;;15.55;8.43;;;12.20;99.90;;;;;;6249011;22;20094;-83
2023/10/19 15:20:25;;;;;;;9.18;5.75;;;12.20;99.90;;;;;;6302282;22;20022;-83
2023/10/19 15:22:52;;;;;;;11.88;6.45;;;12.20;99.90;;;;;;6302296;22;20557;-83
2023/10/19 15:25:20;;;;;;;9.68;5.80;;;12.20;99.90;;;;;;6274751;22;20018;-84
2023/10/19 15:27:51;;;;;;;7.95;4.60;;;12.10;99.90;;;;;;6303259;22;20015;-83
2023/10/19 15:30:20;;;;;;;8.85;4.55;;;12.10;99.90;;;;;;6302628;22;20015;-83
2023/10/19 15:32:50;;;;;;;13.15;5.32;;;12.10;99.90;;;;;;6302738;22;20015;-82
2023/10/19 15:35:23;;;;;;;12.10;4.88;;;12.10;99.90;;;;;;6302338;22;20008;-83
2023/10/19 15:37:54;;;;;;;8.77;4.05;;;12.10;99.90;;;;;;6301840;22;20011;-84
2023/10/19 15:40:20;;;;;;;15.98;7.10;;;12.10;99.90;;;;;;6302617;22;20043;-83
2023/10/19 15:42:46;;;;;;;11.02;6.18;;;12.00;99.90;;;;;;6303059;22;20445;-82
2023/10/19 15:45:14;;;;;;;8.77;5.25;;;12.00;99.90;;;;;;6301631;22;20377;-83
2023/10/19 15:47:41;;;;;;;10.80;5.30;;;12.00;99.90;;;;;;6302041;22;20023;-83
2023/10/19 15:50:12;;;;;;;7.55;4.13;;;12.00;99.90;;;;;;6302744;22;20028;-84
2023/10/19 15:52:44;;;;;;;12.15;4.90;;;12.00;99.90;;;;;;6274897;22;20022;-84
2023/10/19 15:55:13;;;;;;;10.35;4.43;;;12.00;99.90;;;;;;6302100;22;20015;-83
2023/10/19 15:57:40;;;;;;;8.73;3.83;;;11.90;99.90;;;;;;6301920;22;20661;-83
2023/10/19 16:00:10;;;;;;;10.18;5.07;;;11.90;99.90;;;;;;6301924;22;20367;-83
2023/10/19 16:02:36;;;;;;;6.10;3.85;;;11.90;99.90;;;;;;6275030;22;20062;-83
2023/10/19 16:05:04;;;;;;;10.65;4.68;;;11.90;99.90;;;;;;6301995;22;20022;-83
2023/10/19 16:07:30;;;;;;;9.00;4.53;;;11.90;99.90;;;;;;6302256;22;20018;-83
2023/10/19 16:09:56;;;;;;;8.45;4.18;;;11.80;99.90;;;;;;6303233;22;20011;-82
2023/10/19 16:12:22;;;;;;;8.80;4.55;;;11.80;99.90;;;;;;6301667;22;20447;-83
2023/10/19 16:14:47;;;;;;;9.48;4.35;;;11.80;99.90;;;;;;6300976;22;20011;-82
2023/10/19 16:17:16;;;;;;;10.15;4.50;;;11.80;99.90;;;;;;6302749;22;20077;-84
2023/10/19 16:19:43;;;;;;;9.90;4.20;;;11.80;99.90;;;;;;6274723;22;20482;-82
2023/10/19 16:22:09;;;;;;;7.22;4.05;;;11.80;99.90;;;;;;6302647;22;20015;-83
2023/10/19 16:24:34;;;;;;;8.27;4.20;;;11.80;99.90;;;;;;6301847;22;20070;-84
2023/10/19 16:27:01;;;;;;;7.40;4.00;;;11.80;99.90;;;;;;6300935;22;20019;-82
2023/10/19 16:29:27;;;;;;;8.23;4.68;;;11.70;99.90;;;;;;6301561;22;20015;-84
2023/10/19 16:31:55;;;;;;;8.20;4.25;;;11.70;99.90;;;;;;6301849;22;20011;-85
2023/10/19 16:34:21;;;;;;;7.35;4.57;;;11.70;99.90;;;;;;6302422;22;20018;-83
2023/10/19 16:36:48;;;;;;;8.52;4.95;;;11.70;99.90;;;;;;6275505;22;20118;-83
2023/10/19 16:39:17;;;;;;;7.72;4.13;;;11.70;99.90;;;;;;6302271;22;20082;-82
2023/10/19 16:41:44;;;;;;;7.33;4.77;;;11.70;99.90;;;;;;6275120;22;20023;-82
2023/10/19 16:44:11;;;;;;;11.25;5.60;;;11.60;99.90;;;;;;6303404;22;20011;-83
2023/10/19 16:46:37;;;;;;;10.02;5.35;;;11.60;99.90;;;;;;6303480;22;20042;-82
2023/10/19 16:49:04;;;;;;;9.32;6.28;;;11.60;99.90;;;;;;6302243;22;20155;-82
2023/10/19 16:51:32;;;;;;;24.20;9.30;;;11.60;99.90;;;;;;6303140;22;20443;-82
2023/10/19 16:53:58;;;;;;;26.98;10.98;;;11.60;99.90;;;;;;6275097;22;20528;-83
2023/10/19 16:56:25;;;;;;;12.20;7.68;;;11.60;99.90;;;;;;6303761;22;20015;-84
2023/10/19 16:58:50;;;;;;;13.15;6.53;;;11.60;99.90;;;;;;6303287;22;20050;-84
2023/10/19 17:01:17;;;;;;;10.60;5.88;;;11.50;99.90;;;;;;6274952;22;20011;-84
2023/10/19 17:03:44;;;;;;;9.25;4.78;;;11.50;99.90;;;;;;6303484;22;20097;-84
2023/10/19 17:06:10;;;;;;;8.40;5.18;;;11.50;99.90;;;;;;6276017;22;20015;-84
2023/10/19 17:08:39;;;;;;;8.23;5.07;;;11.50;99.90;;;;;;6274818;22;20325;-85
2023/10/19 17:11:08;;;;;;;7.50;4.88;;;11.40;99.90;;;;;;6275872;22;20570;-83
2023/10/19 17:13:36;;;;;;;11.75;5.28;;;11.40;99.90;;;;;;6275472;22;20015;-83
2023/10/19 17:16:02;;;;;;;8.05;4.30;;;11.30;99.90;;;;;;6274230;22;20011;-84
2023/10/19 17:18:29;;;;;;;9.32;4.82;;;11.30;99.90;;;;;;6274171;22;20359;-83
2023/10/19 17:20:56;;;;;;;9.40;5.53;;;11.30;99.90;;;;;;6275170;22;20131;-83
2023/10/19 17:23:23;;;;;;;9.30;4.63;;;11.30;99.90;;;;;;6274672;22;20022;-82
2023/10/19 17:25:49;;;;;;;10.30;4.82;;;11.30;99.90;;;;;;6303003;22;20011;-81
2023/10/19 17:28:15;;;;;;;12.13;5.28;;;11.30;99.90;;;;;;6303278;22;20019;-81
2023/10/19 17:30:41;;;;;;;9.70;5.03;;;11.30;99.90;;;;;;6274601;22;20455;-81
2023/10/19 17:33:10;;;;;;;7.95;4.72;;;11.20;99.90;;;;;;6275045;22;20511;-82
2023/10/19 17:35:38;;;;;;;8.98;4.13;;;11.20;99.90;;;;;;6302701;22;20022;-82
2023/10/19 17:38:04;;;;;;;8.05;4.35;;;11.20;99.90;;;;;;6275317;22;20019;-81
2023/10/19 17:40:30;;;;;;;7.88;4.20;;;11.20;99.90;;;;;;6275850;22;20047;-81
2023/10/19 17:42:56;;;;;;;8.13;4.65;;;11.20;99.90;;;;;;6302018;22;20007;-81
2023/10/19 17:45:21;;;;;;;8.45;3.90;;;11.10;99.90;;;;;;6275192;22;20030;-82
2023/10/19 17:47:47;;;;;;;7.68;4.78;;;11.10;99.90;;;;;;6302275;22;20475;-81
2023/10/19 17:50:13;;;;;;;9.10;3.42;;;11.10;99.90;;;;;;6301649;22;20011;-81
2023/10/19 17:52:39;;;;;;;8.68;4.20;;;11.10;99.90;;;;;;6303319;22;20627;-84
2023/10/19 17:55:06;;;;;;;9.52;4.05;;;11.10;99.90;;;;;;6275381;22;20054;-82
2023/10/19 17:57:33;;;;;;;7.65;4.05;;;11.00;99.90;;;;;;6302143;22;20007;-81
2023/10/19 17:59:59;;;;;;;7.95;4.30;;;11.00;99.90;;;;;;6274809;22;20026;-82
2023/10/19 18:02:26;;;;;;;8.00;4.03;;;11.00;99.90;;;;;;6302626;22;20012;-82
2023/10/19 18:04:53;;;;;;;10.05;5.38;;;11.00;99.90;;;;;;6301616;22;20460;-82
2023/10/19 18:07:21;;;;;;;8.80;4.32;;;11.00;99.90;;;;;;6302429;22;20012;-83
2023/10/19 18:09:49;;;;;;;9.95;4.35;;;11.00;99.90;;;;;;6302819;22;20011;-83
2023/10/19 18:12:16;;;;;;;5.80;3.30;;;10.90;99.90;;;;;;6302137;22;20090;-82
2023/10/19 18:14:42;;;;;;;9.13;4.53;;;10.90;99.90;;;;;;6302707;22;20474;-83
2023/10/19 18:17:11;;;;;;;5.90;3.63;;;10.90;99.90;;;;;;6302947;22;20011;-82
2023/10/19 18:19:37;;;;;;;7.18;4.32;;;10.90;99.90;;;;;;6300198;22;20026;-83
2023/10/19 18:22:04;;;;;;;8.57;4.57;;;10.80;99.90;;;;;;6301560;22;20011;-82
2023/10/19 18:24:32;;;;;;;8.13;5.18;;;10.80;99.90;;;;;;6275056;22;20144;-82
2023/10/19 18:27:01;;;;;;;7.65;3.90;;;10.80;99.90;;;;;;6274098;22;20090;-81
2023/10/19 18:29:28;;;;;;;8.85;4.57;;;10.80;99.90;;;;;;6302459;22;20013;-84
2023/10/19 18:31:54;;;;;;;5.78;3.70;;;10.80;99.90;;;;;;6274186;22;20077;-83
2023/10/19 18:34:21;;;;;;;7.50;4.03;;;10.80;99.90;;;;;;6274708;22;20056;-83
2023/10/19 18:36:48;;;;;;;6.90;3.75;;;10.70;99.90;;;;;;6274775;22;20015;-84
2023/10/19 18:39:18;;;;;;;8.52;3.80;;;10.70;99.90;;;;;;6273899;22;20343;-84
2023/10/19 18:41:43;;;;;;;;;;;10.70;99.90;;;;;;6275292;22;20141;-83
2023/10/19 18:44:10;;;;;;;6.55;3.60;;;10.70;99.90;;;;;;6274900;22;19957;-82
2023/10/19 18:46:36;;;;;;;6.80;3.70;;;10.70;99.90;;;;;;6301465;22;20038;-83
2023/10/19 18:49:02;;;;;;;6.43;3.67;;;10.60;99.90;;;;;;6301773;22;20060;-83
2023/10/19 18:51:29;;;;;;;7.00;3.78;;;10.60;99.90;;;;;;6274716;22;20086;-83
2023/10/19 18:53:55;;;;;;;7.85;3.55;;;10.60;99.90;;;;;;6248671;22;20030;-84
2023/10/19 18:56:24;;;;;;;9.70;3.97;;;10.60;99.90;;;;;;6250580;22;20015;-84
2023/10/19 18:58:50;;;;;;;8.82;4.15;;;10.60;99.90;;;;;;6276113;22;20054;-83
2023/10/19 19:01:16;;;;;;;7.45;3.85;;;10.60;99.90;;;;;;6274068;22;20563;-84
2023/10/19 19:03:42;;;;;;;9.95;4.18;;;10.60;99.90;;;;;;6274695;22;20141;-85
2023/10/19 19:06:07;;;;;;;6.15;3.70;;;10.50;99.90;;;;;;6274790;22;20077;-84
2023/10/19 19:08:34;;;;;;;6.97;4.15;;;10.50;99.90;;;;;;6301501;22;20012;-84
2023/10/19 19:11:11;;;;;;;7.15;4.13;;;10.50;99.90;;;;;;6274476;22;20339;-87
2023/10/19 19:13:43;;;;;;;9.73;4.55;;;10.50;99.90;;;;;;6274676;22;20012;-84
2023/10/19 19:16:09;;;;;;;8.88;4.18;;;10.40;99.90;;;;;;6274052;22;20038;-83
2023/10/19 19:18:36;;;;;;;8.70;4.05;;;10.50;99.90;;;;;;6273863;22;20015;-84
2023/10/19 19:21:07;;;;;;;7.38;4.22;;;10.40;99.90;;;;;;6301360;22;20007;-84
2023/10/19 19:23:40;;;;;;;7.50;4.13;;;10.40;99.90;;;;;;6300966;22;20011;-84
2023/10/19 19:26:08;;;;;;;9.60;4.72;;;10.40;99.90;;;;;;6274429;22;20030;-84
2023/10/19 19:28:38;;;;;;;8.82;4.45;;;10.40;99.90;;;;;;6246545;22;20030;-85
2023/10/19 19:31:05;;;;;;;10.40;5.72;;;10.40;99.90;;;;;;6275830;22;20016;-83
2023/10/19 19:33:31;;;;;;;10.75;5.57;;;10.30;99.90;;;;;;6274790;22;20062;-85
2023/10/19 19:35:57;;;;;;;9.43;4.95;;;10.30;99.90;;;;;;6248209;22;20012;-85
2023/10/19 19:38:23;;;;;;;10.32;5.93;;;10.30;99.90;;;;;;6274476;22;20090;-88
2023/10/19 19:40:50;;;;;;;8.75;4.15;;;10.30;99.90;;;;;;6273590;22;20007;-83
2023/10/19 19:43:16;;;;;;;9.60;4.78;;;10.30;99.90;;;;;;6272824;22;20019;-85
2023/10/19 19:45:45;;;;;;;6.75;4.03;;;10.20;99.90;;;;;;6247893;22;20011;-86
2023/10/19 19:48:11;;;;;;;8.77;3.83;;;10.20;99.90;;;;;;6272418;22;20027;-87
2023/10/19 19:50:43;;;;;;;8.80;4.93;;;10.30;99.90;;;;;;6272434;22;20355;-88
2023/10/19 19:53:15;;;;;;;35.33;13.48;;;10.20;99.90;;;;;;6273423;22;20348;-85
2023/10/19 19:55:46;;;;;;;22.08;9.77;;;10.20;99.90;;;;;;6248276;22;20073;-93
2023/10/19 19:58:15;;;;;;;15.13;8.63;;;10.20;99.90;;;;;;6247154;22;20033;-84
2023/10/19 20:00:46;;;;;;;11.98;6.22;;;10.10;99.90;;;;;;6273037;22;20019;-83
2023/10/19 20:03:14;;;;;;;10.80;5.47;;;10.00;99.90;;;;;;6300168;22;20094;-82
2023/10/19 20:05:43;;;;;;;9.70;5.05;;;10.00;99.90;;;;;;6302742;22;20015;-83
2023/10/19 20:08:16;;;;;;;8.88;4.95;;;10.00;99.90;;;;;;6301741;22;20018;-81
2023/10/19 20:10:46;;;;;;;8.27;5.13;;;10.00;99.90;;;;;;6300889;22;20145;-82
2023/10/19 20:13:13;;;;;;;9.48;4.82;;;9.90;99.90;;;;;;6275148;22;20145;-83
2023/10/19 20:15:43;;;;;;;7.50;5.15;;;9.90;99.90;;;;;;6250471;22;20022;-81
2023/10/19 20:18:13;;;;;;;7.72;4.28;;;9.90;99.90;;;;;;6302511;22;20514;-82
2023/10/19 20:20:40;;;;;;;7.65;4.38;;;9.80;99.90;;;;;;6302769;22;20007;-83
2023/10/19 20:23:06;;;;;;;7.10;4.70;;;9.90;99.90;;;;;;6274649;22;20525;-85
2023/10/19 20:25:33;;;;;;;6.95;3.97;;;9.90;99.90;;;;;;6272710;22;20387;-86
2023/10/19 20:28:00;;;;;;;11.55;5.18;;;9.80;99.90;;;;;;6274398;22;20402;-82
2023/10/19 20:30:26;;;;;;;12.88;5.88;;;9.80;99.90;;;;;;6274534;22;20317;-82
2023/10/19 20:32:52;;;;;;;10.48;4.82;;;9.80;99.90;;;;;;6273895;22;20030;-83
2023/10/19 20:35:20;;;;;;;8.77;4.63;;;9.80;99.90;;;;;;6300713;22;20011;-84
2023/10/19 20:37:47;;;;;;;12.40;4.70;;;9.80;99.90;;;;;;6301684;22;20360;-85
2023/10/19 20:40:24;;;;;;;12.55;5.20;;;9.80;99.90;;;;;;6274061;22;20317;-84